Portada
METAR-TAF:

METAR-TAF

Aeroports :

Cranwell, Anglaterra

latitud: 53-02N, longitud: 000-30W, altitud: 67 m

Observació

L'informe es va fer fa 35 minuts, a les 10:50 UTC
Vent 10 kt del Est/Nord-Est
Temperatura 15°C
Humitat 63%
Pressió 1027 hPa
Visibilitat 10 km o més

METAR: EGYD 091050Z AUTO 06010KT 9999 // FEW080/// 15/08 Q1027

Hora: 12:25 (11:25 UTC)


TAF: manca

Observacions i pronòstics meteorològics de més de 4000 aeroports (METAR i TAF).

Les estacions disponibles són els punts grocs i vermells al mapa.

Posi el ratolí al punt desitjat per veure el nom de l'estació.

Feu clic per veure les observacions i els pronòstics meteorològics.

Per canviar el mapa: feu clic els botons verds amb una creu de color negre per apropar; al botó verd amb un guió per allunyar la imatge; o en les fletxes verdes per a mapes adjacents.


METAR-TAF: